Time;durP1;ratioP1;P1;durP2;ratioP2;P2;SDS_P1;SDS_P2;PMS_P1;PMS_P2;Temp;Humidity;BMP_temperature;BMP_pressure;BME280_temperature;BME280_humidity;BME280_pressure;Samples;Min_cycle;Max_cycle;Signal;HPM_P1;HPM_P2
2020/12/06 00:05:35;;;;;;;3.93;0.60;;;6.60;86.10;;;;;;3499729;41;20083;-89
2020/12/06 00:08:20;;;;;;;0.28;0.20;;;6.60;86.90;;;;;;3465796;41;20102;-89
2020/12/06 00:11:06;;;;;;;0.00;0.00;;;6.60;86.20;;;;;;3482029;41;20082;-89
2020/12/06 00:13:53;;;;;;;0.47;0.35;;;6.50;86.30;;;;;;3555505;33;20106;-91
2020/12/06 00:19:53;;;;;;;7.30;0.50;;;6.50;86.30;;;;;;3492123;41;20103;-90
2020/12/06 00:23:10;;;;;;;0.20;0.00;;;6.50;86.30;;;;;;3531227;33;20125;-89
2020/12/06 00:26:31;;;;;;;1.80;0.83;;;6.50;87.00;;;;;;3494842;33;20082;-89
2020/12/06 00:33:49;;;;;;;0.27;0.03;;;6.60;86.20;;;;;;3467238;34;20420;-90
2020/12/06 00:36:40;;;;;;;;;;;6.60;86.00;;;;;;3454058;33;20069;-89
2020/12/06 00:39:14;;;;;;;0.73;0.30;;;6.60;86.00;;;;;;3454185;41;19957;-89
2020/12/06 00:42:06;;;;;;;0.47;0.20;;;6.60;85.80;;;;;;3450274;41;20090;-90
2020/12/06 00:45:10;;;;;;;0.83;0.30;;;6.70;85.90;;;;;;3488986;34;20076;-89
2020/12/06 00:47:53;;;;;;;0.50;0.30;;;6.70;85.90;;;;;;3481455;34;20080;-90
2020/12/06 00:50:29;;;;;;;0.73;0.10;;;6.70;85.90;;;;;;3442948;41;20081;-89
2020/12/06 00:53:03;;;;;;;2.00;0.30;;;6.70;85.90;;;;;;3447844;34;20085;-88
2020/12/06 00:55:30;;;;;;;0.00;0.00;;;6.70;86.00;;;;;;3494959;34;20139;-90
2020/12/06 00:57:57;;;;;;;0.27;0.00;;;6.70;86.00;;;;;;3439207;41;20085;-91
2020/12/06 01:00:25;;;;;;;0.10;0.10;;;6.70;86.10;;;;;;3446400;41;20091;-89
2020/12/06 01:03:08;;;;;;;0.43;0.22;;;6.60;86.10;;;;;;3490267;34;20163;-88
2020/12/06 01:05:44;;;;;;;0.35;0.22;;;6.60;86.30;;;;;;3489596;34;20144;-88
2020/12/06 01:08:20;;;;;;;0.45;0.35;;;6.60;86.40;;;;;;3446911;34;20281;-88
2020/12/06 01:11:21;;;;;;;1.80;0.20;;;6.50;86.60;;;;;;3436921;41;20287;-89
2020/12/06 01:16:41;;;;;;;;;;;6.40;87.10;;;;;;3469074;34;20073;-89
2020/12/06 01:19:19;;;;;;;0.30;0.00;;;6.30;87.10;;;;;;3455166;41;19954;-88
2020/12/06 01:21:52;;;;;;;0.15;0.10;;;6.30;87.20;;;;;;3454416;34;20076;-88
2020/12/06 01:24:24;;;;;;;0.00;0.00;;;6.30;87.30;;;;;;3498477;34;20073;-89
2020/12/06 01:26:51;;;;;;;0.30;0.13;;;6.30;87.40;;;;;;3436735;41;20080;-89
2020/12/06 01:32:17;;;;;;;0.00;0.00;;;6.20;87.60;;;;;;3502225;41;20063;-89
2020/12/06 01:34:52;;;;;;;0.00;0.00;;;6.10;87.70;;;;;;3540768;33;20106;-89
2020/12/06 01:37:19;;;;;;;5.67;0.40;;;6.00;87.80;;;;;;3499496;41;20126;-90
2020/12/06 01:39:46;;;;;;;0.20;0.10;;;6.00;88.10;;;;;;3472149;41;20086;-89
2020/12/06 01:42:14;;;;;;;0.20;0.07;;;5.90;88.30;;;;;;3483655;41;20086;-88
2020/12/06 01:44:48;;;;;;;0.10;0.10;;;5.80;88.60;;;;;;3457278;41;20123;-89
2020/12/06 01:47:14;;;;;;;0.47;0.30;;;5.70;88.70;;;;;;3447176;34;20123;-89
2020/12/06 01:49:42;;;;;;;0.30;0.00;;;5.70;88.90;;;;;;3463410;34;20085;-88
2020/12/06 01:52:10;;;;;;;0.27;0.10;;;5.60;89.10;;;;;;3469315;34;20072;-88
2020/12/06 01:54:46;;;;;;;0.00;0.00;;;5.50;89.20;;;;;;3493089;34;20076;-89
2020/12/06 01:57:12;;;;;;;0.07;0.03;;;5.50;89.30;;;;;;3435757;41;20756;-89
2020/12/06 01:59:41;;;;;;;0.10;0.10;;;5.50;89.20;;;;;;3500261;34;20104;-90
2020/12/06 02:02:09;;;;;;;0.13;0.03;;;5.60;89.10;;;;;;3467066;34;20155;-89
2020/12/06 02:04:41;;;;;;;0.27;0.03;;;5.60;89.00;;;;;;3486672;34;20112;-88
2020/12/06 02:07:33;;;;;;;0.10;0.00;;;5.70;88.80;;;;;;3492055;34;20108;-90
2020/12/06 02:10:07;;;;;;;0.53;0.07;;;5.70;88.60;;;;;;3432753;34;20089;-89
2020/12/06 02:16:22;;;;;;;1.85;0.45;;;5.80;88.40;;;;;;3450854;34;20089;-88
2020/12/06 02:19:21;;;;;;;0.70;0.23;;;5.80;88.20;;;;;;3579257;34;20212;-88
2020/12/06 02:22:59;;;;;;;0.30;0.17;;;5.80;88.00;;;;;;3516821;34;20074;-89
2020/12/06 02:25:27;;;;;;;0.20;0.03;;;5.80;87.90;;;;;;3485236;34;20114;-89
2020/12/06 02:28:08;;;;;;;0.20;0.10;;;5.80;87.90;;;;;;3487836;34;20158;-90
2020/12/06 02:31:23;;;;;;;0.83;0.30;;;5.80;87.90;;;;;;3549977;34;20107;-90
2020/12/06 02:34:32;;;;;;;0.27;0.10;;;5.80;87.90;;;;;;3444178;34;20128;-88
2020/12/06 02:37:10;;;;;;;3.55;0.63;;;5.70;88.00;;;;;;3462655;41;20150;-90
2020/12/06 02:39:43;;;;;;;0.10;0.10;;;5.70;88.10;;;;;;3470765;34;20084;-91
2020/12/06 02:42:41;;;;;;;0.20;0.10;;;5.70;88.20;;;;;;3532333;33;20116;-89
2020/12/06 02:45:25;;;;;;;0.40;0.20;;;5.70;88.30;;;;;;3447986;41;20095;-91
2020/12/06 02:48:39;;;;;;;;;;;;;;;;;;;;;
2020/12/06 03:44:08;;;;;;;0.10;0.03;;;6.00;87.40;;;;;;4052016;28;20125;31
2020/12/06 04:00:45;;;;;;;0.27;0.00;;;5.80;88.00;;;;;;3552295;28;20066;-90
2020/12/06 04:06:53;;;;;;;0.53;0.20;;;5.70;88.20;;;;;;3537778;33;20117;-91
2020/12/06 04:09:30;;;;;;;0.83;0.27;;;5.70;88.30;;;;;;3492906;40;20081;-89
2020/12/06 04:15:21;;;;;;;0.30;0.23;;;5.70;88.20;;;;;;3481702;33;20079;-91
2020/12/06 04:17:50;;;;;;;0.07;0.00;;;5.70;88.20;;;;;;3478763;34;20111;-88
2020/12/06 04:20:17;;;;;;;0.10;0.00;;;5.70;88.10;;;;;;3482641;33;20090;-91
2020/12/06 04:22:43;;;;;;;0.17;0.17;;;5.70;88.10;;;;;;3461883;33;20076;-90
2020/12/06 04:25:21;;;;;;;2.00;0.10;;;5.70;88.10;;;;;;3454874;34;20081;-89
2020/12/06 04:27:50;;;;;;;0.00;0.00;;;5.80;88.00;;;;;;3452348;41;20100;-90
2020/12/06 04:30:27;;;;;;;;;;;;;;;;;;;;;
2020/12/06 04:33:10;;;;;;;0.47;0.13;;;5.80;87.90;;;;;;3437993;35;20096;-90
2020/12/06 04:35:46;;;;;;;;;;;;;;;;;;;;;
2020/12/06 04:38:29;;;;;;;0.10;0.03;;;5.80;87.80;;;;;;3437178;41;20650;-90
2020/12/06 04:41:12;;;;;;;0.20;0.10;;;5.80;87.80;;;;;;3443432;41;20541;-91
2020/12/06 04:43:42;;;;;;;0.23;0.17;;;5.80;87.80;;;;;;3452353;41;20091;-91
2020/12/06 04:46:22;;;;;;;0.20;0.10;;;5.70;87.80;;;;;;3500825;33;20091;-89
2020/12/06 04:49:21;;;;;;;0.37;0.13;;;5.70;87.80;;;;;;3461109;41;20080;-90
2020/12/06 04:51:47;;;;;;;0.03;0.00;;;5.70;87.90;;;;;;3487954;34;20120;-90
2020/12/06 08:26:11;;;;;;;;;;;;;;;;;;;;;
2020/12/06 22:12:59;;;;;;;0.00;0.00;;;6.30;87.40;;;;;;3946536;27;20085;-92
2020/12/06 22:15:27;;;;;;;0.22;0.14;;;6.20;87.30;;;;;;3803337;33;20140;31
2020/12/06 22:20:32;;;;;;;0.10;0.10;;;6.20;87.30;;;;;;3928326;28;20165;-88
2020/12/06 22:23:20;;;;;;;1.97;0.60;;;6.20;87.40;;;;;;3505725;41;20140;-89
2020/12/06 22:26:10;;;;;;;0.40;0.27;;;6.20;87.40;;;;;;3480036;33;20133;-88
2020/12/06 22:28:37;;;;;;;2.75;0.60;;;6.30;87.40;;;;;;3492392;33;20140;-87
2020/12/06 22:31:03;;;;;;;3.87;0.67;;;6.30;87.40;;;;;;3490440;33;20129;-88
2020/12/06 22:33:30;;;;;;;2.27;0.53;;;6.20;87.40;;;;;;3490088;41;20113;-88
2020/12/06 22:35:59;;;;;;;0.80;0.37;;;6.20;87.40;;;;;;3490407;35;20126;-89
2020/12/06 22:38:28;;;;;;;0.57;0.27;;;6.20;88.20;;;;;;3496006;33;20095;-88
2020/12/06 22:40:57;;;;;;;0.68;0.30;;;6.20;87.40;;;;;;3482067;33;20102;-87
2020/12/06 22:43:24;;;;;;;0.47;0.37;;;6.20;87.50;;;;;;3474101;33;20105;-88
2020/12/06 22:45:52;;;;;;;0.07;0.07;;;6.30;87.50;;;;;;3473869;34;20106;-88
2020/12/06 22:48:23;;;;;;;0.20;0.20;;;6.20;87.40;;;;;;3470601;33;20113;-86
2020/12/06 22:50:51;;;;;;;1.20;0.40;;;6.20;87.40;;;;;;3478677;41;20518;-88
2020/12/06 22:53:19;;;;;;;0.23;0.20;;;6.30;87.50;;;;;;3499783;33;20356;-87
2020/12/06 22:55:45;;;;;;;0.70;0.50;;;6.20;87.50;;;;;;3479200;33;20122;-88
2020/12/06 22:58:12;;;;;;;1.00;0.30;;;6.20;87.50;;;;;;3483452;41;20122;-87
2020/12/06 23:00:45;;;;;;;0.50;0.43;;;6.20;87.60;;;;;;3494375;33;20186;-88
2020/12/06 23:03:13;;;;;;;1.37;0.10;;;6.20;87.60;;;;;;3498979;33;20161;-87
2020/12/06 23:05:41;;;;;;;0.93;0.37;;;6.20;87.60;;;;;;3479863;34;20151;-88
2020/12/06 23:08:09;;;;;;;0.43;0.20;;;6.10;87.60;;;;;;3480728;41;20143;-88
2020/12/06 23:10:35;;;;;;;1.90;0.70;;;6.20;87.70;;;;;;3475621;33;20128;-87
2020/12/06 23:13:01;;;;;;;0.20;0.10;;;6.20;87.70;;;;;;3479202;41;20142;-88
2020/12/06 23:15:28;;;;;;;0.13;0.10;;;6.20;87.70;;;;;;3462945;33;20617;-87
2020/12/06 23:17:54;;;;;;;1.90;0.37;;;6.20;87.70;;;;;;3474846;33;20595;-87
2020/12/06 23:20:22;;;;;;;0.23;0.10;;;6.10;87.70;;;;;;3486275;41;20147;-87
2020/12/06 23:22:48;;;;;;;0.40;0.30;;;6.10;87.80;;;;;;3464340;34;20171;-88
2020/12/06 23:25:15;;;;;;;0.40;0.20;;;6.10;87.80;;;;;;3474828;41;20118;-87
2020/12/06 23:27:41;;;;;;;2.00;0.47;;;6.10;87.70;;;;;;3474276;33;20125;-87
2020/12/06 23:30:09;;;;;;;0.43;0.23;;;6.10;87.70;;;;;;3470328;34;20135;-87
2020/12/06 23:32:36;;;;;;;0.47;0.10;;;6.10;87.80;;;;;;3482983;33;20122;-88
2020/12/06 23:35:05;;;;;;;0.77;0.37;;;6.10;87.80;;;;;;3480776;41;20156;-88
2020/12/06 23:37:31;;;;;;;0.70;0.37;;;6.10;87.80;;;;;;3473335;41;20396;-87
2020/12/06 23:39:57;;;;;;;2.67;0.37;;;6.10;87.80;;;;;;3489015;33;20123;-88
2020/12/06 23:42:24;;;;;;;7.97;0.80;;;6.10;87.80;;;;;;3470874;41;20134;-88
2020/12/06 23:44:50;;;;;;;1.27;0.50;;;6.10;87.80;;;;;;3476004;33;20228;-88
2020/12/06 23:47:16;;;;;;;0.10;0.10;;;6.10;87.70;;;;;;3481620;34;20123;-89
2020/12/06 23:49:44;;;;;;;1.37;0.30;;;6.10;87.70;;;;;;3480973;33;20123;-88
2020/12/06 23:52:10;;;;;;;0.40;0.20;;;6.10;87.70;;;;;;3481118;33;20127;-88
2020/12/06 23:54:37;;;;;;;0.93;0.40;;;6.10;87.70;;;;;;3484235;33;20139;-87
2020/12/06 23:57:04;;;;;;;0.63;0.33;;;6.10;87.70;;;;;;3484042;33;20131;-87
2020/12/06 23:59:31;;;;;;;1.47;0.40;;;6.10;87.70;;;;;;3478475;33;20146;-88
